sensor_id;sensor_type;location;lat;lon;timestamp;P1;durP1;ratioP1;P2;durP2;ratioP2
33824;SDS011;20127;48.962;8.342;2023-04-24T00:00:02;2.63;;;1.10;;
33824;SDS011;20127;48.962;8.342;2023-04-24T00:03:05;0.88;;;0.88;;
33824;SDS011;20127;48.962;8.342;2023-04-24T00:06:07;1.20;;;1.00;;
33824;SDS011;20127;48.962;8.342;2023-04-24T00:09:09;4.68;;;1.27;;
33824;SDS011;20127;48.962;8.342;2023-04-24T00:12:11;1.80;;;1.45;;
33824;SDS011;20127;48.962;8.342;2023-04-24T00:15:14;2.35;;;1.58;;
33824;SDS011;20127;48.962;8.342;2023-04-24T00:18:16;4.28;;;1.35;;
33824;SDS011;20127;48.962;8.342;2023-04-24T00:21:18;1.25;;;0.90;;
33824;SDS011;20127;48.962;8.342;2023-04-24T00:24:20;1.10;;;1.00;;
33824;SDS011;20127;48.962;8.342;2023-04-24T00:27:22;1.00;;;0.90;;
33824;SDS011;20127;48.962;8.342;2023-04-24T00:30:25;5.68;;;1.05;;
33824;SDS011;20127;48.962;8.342;2023-04-24T00:33:27;3.25;;;1.25;;
33824;SDS011;20127;48.962;8.342;2023-04-24T00:36:28;0.77;;;0.77;;
33824;SDS011;20127;48.962;8.342;2023-04-24T00:39:30;1.58;;;1.10;;
33824;SDS011;20127;48.962;8.342;2023-04-24T00:42:32;2.78;;;1.20;;
33824;SDS011;20127;48.962;8.342;2023-04-24T00:45:36;2.88;;;1.23;;
33824;SDS011;20127;48.962;8.342;2023-04-24T00:48:38;0.80;;;0.70;;
33824;SDS011;20127;48.962;8.342;2023-04-24T00:51:40;1.13;;;0.93;;
33824;SDS011;20127;48.962;8.342;2023-04-24T00:54:45;0.90;;;0.90;;
33824;SDS011;20127;48.962;8.342;2023-04-24T00:57:47;0.90;;;0.65;;
33824;SDS011;20127;48.962;8.342;2023-04-24T01:00:51;2.55;;;1.05;;
33824;SDS011;20127;48.962;8.342;2023-04-24T01:03:54;1.77;;;1.20;;
33824;SDS011;20127;48.962;8.342;2023-04-24T01:06:56;2.92;;;1.05;;
33824;SDS011;20127;48.962;8.342;2023-04-24T01:09:58;5.35;;;1.25;;
33824;SDS011;20127;48.962;8.342;2023-04-24T01:13:00;1.10;;;0.70;;
33824;SDS011;20127;48.962;8.342;2023-04-24T01:16:03;2.38;;;1.58;;
33824;SDS011;20127;48.962;8.342;2023-04-24T01:19:05;2.17;;;1.10;;
33824;SDS011;20127;48.962;8.342;2023-04-24T01:22:09;4.22;;;1.10;;
33824;SDS011;20127;48.962;8.342;2023-04-24T01:25:12;1.25;;;1.15;;
33824;SDS011;20127;48.962;8.342;2023-04-24T01:28:14;0.85;;;0.82;;
33824;SDS011;20127;48.962;8.342;2023-04-24T01:31:16;2.45;;;2.25;;
33824;SDS011;20127;48.962;8.342;2023-04-24T01:34:18;2.65;;;1.58;;
33824;SDS011;20127;48.962;8.342;2023-04-24T01:37:21;1.17;;;1.08;;
33824;SDS011;20127;48.962;8.342;2023-04-24T01:40:22;3.42;;;1.63;;
33824;SDS011;20127;48.962;8.342;2023-04-24T01:43:24;1.85;;;1.02;;
33824;SDS011;20127;48.962;8.342;2023-04-24T01:46:26;2.35;;;1.73;;
33824;SDS011;20127;48.962;8.342;2023-04-24T01:49:28;1.15;;;1.05;;
33824;SDS011;20127;48.962;8.342;2023-04-24T01:52:31;1.58;;;1.48;;
33824;SDS011;20127;48.962;8.342;2023-04-24T01:55:33;1.63;;;1.25;;
33824;SDS011;20127;48.962;8.342;2023-04-24T01:58:35;1.23;;;1.13;;
33824;SDS011;20127;48.962;8.342;2023-04-24T02:01:37;1.38;;;1.15;;
33824;SDS011;20127;48.962;8.342;2023-04-24T02:04:39;2.15;;;1.13;;
33824;SDS011;20127;48.962;8.342;2023-04-24T02:07:42;4.45;;;1.30;;
33824;SDS011;20127;48.962;8.342;2023-04-24T02:10:44;0.90;;;0.80;;
33824;SDS011;20127;48.962;8.342;2023-04-24T02:13:45;2.28;;;1.20;;
33824;SDS011;20127;48.962;8.342;2023-04-24T02:16:47;4.00;;;1.27;;
33824;SDS011;20127;48.962;8.342;2023-04-24T02:19:49;2.85;;;1.30;;
33824;SDS011;20127;48.962;8.342;2023-04-24T02:22:52;1.40;;;1.30;;
33824;SDS011;20127;48.962;8.342;2023-04-24T02:25:54;2.20;;;0.90;;
33824;SDS011;20127;48.962;8.342;2023-04-24T02:28:55;3.78;;;2.10;;
33824;SDS011;20127;48.962;8.342;2023-04-24T02:31:57;2.33;;;1.00;;
33824;SDS011;20127;48.962;8.342;2023-04-24T02:34:59;1.10;;;0.80;;
33824;SDS011;20127;48.962;8.342;2023-04-24T02:38:02;1.17;;;1.00;;
33824;SDS011;20127;48.962;8.342;2023-04-24T02:41:04;3.42;;;1.42;;
33824;SDS011;20127;48.962;8.342;2023-04-24T02:44:06;1.73;;;1.27;;
33824;SDS011;20127;48.962;8.342;2023-04-24T02:47:07;1.58;;;1.40;;
33824;SDS011;20127;48.962;8.342;2023-04-24T02:50:09;1.13;;;0.90;;
33824;SDS011;20127;48.962;8.342;2023-04-24T02:53:12;1.33;;;1.23;;
33824;SDS011;20127;48.962;8.342;2023-04-24T02:56:14;1.75;;;1.50;;
33824;SDS011;20127;48.962;8.342;2023-04-24T02:59:16;6.03;;;2.35;;
33824;SDS011;20127;48.962;8.342;2023-04-24T03:02:17;8.48;;;1.35;;
33824;SDS011;20127;48.962;8.342;2023-04-24T03:05:20;3.65;;;1.30;;
33824;SDS011;20127;48.962;8.342;2023-04-24T03:08:23;6.40;;;1.83;;
33824;SDS011;20127;48.962;8.342;2023-04-24T03:11:25;2.30;;;1.02;;
33824;SDS011;20127;48.962;8.342;2023-04-24T03:14:27;1.75;;;1.20;;
33824;SDS011;20127;48.962;8.342;2023-04-24T03:17:31;4.57;;;1.25;;
33824;SDS011;20127;48.962;8.342;2023-04-24T03:20:32;1.55;;;1.08;;
33824;SDS011;20127;48.962;8.342;2023-04-24T03:23:35;7.60;;;1.48;;
33824;SDS011;20127;48.962;8.342;2023-04-24T03:26:37;2.67;;;1.48;;
33824;SDS011;20127;48.962;8.342;2023-04-24T03:29:39;1.88;;;1.50;;
33824;SDS011;20127;48.962;8.342;2023-04-24T03:32:40;2.17;;;1.65;;
33824;SDS011;20127;48.962;8.342;2023-04-24T03:35:42;3.25;;;2.03;;
33824;SDS011;20127;48.962;8.342;2023-04-24T03:38:45;2.53;;;2.38;;
33824;SDS011;20127;48.962;8.342;2023-04-24T03:41:47;1.98;;;1.77;;
33824;SDS011;20127;48.962;8.342;2023-04-24T03:44:48;4.28;;;3.42;;
33824;SDS011;20127;48.962;8.342;2023-04-24T03:47:50;2.47;;;2.28;;
33824;SDS011;20127;48.962;8.342;2023-04-24T03:50:52;6.50;;;1.90;;
33824;SDS011;20127;48.962;8.342;2023-04-24T03:53:55;2.38;;;2.17;;
33824;SDS011;20127;48.962;8.342;2023-04-24T03:56:56;3.72;;;3.38;;
33824;SDS011;20127;48.962;8.342;2023-04-24T03:59:58;6.68;;;2.92;;
33824;SDS011;20127;48.962;8.342;2023-04-24T04:03:00;5.97;;;2.33;;
33824;SDS011;20127;48.962;8.342;2023-04-24T04:06:01;3.30;;;1.88;;
33824;SDS011;20127;48.962;8.342;2023-04-24T04:09:05;3.40;;;2.50;;
33824;SDS011;20127;48.962;8.342;2023-04-24T04:12:07;4.90;;;2.25;;
33824;SDS011;20127;48.962;8.342;2023-04-24T04:15:09;4.57;;;2.60;;
33824;SDS011;20127;48.962;8.342;2023-04-24T04:18:11;2.03;;;1.83;;
33824;SDS011;20127;48.962;8.342;2023-04-24T04:21:12;2.35;;;2.05;;
33824;SDS011;20127;48.962;8.342;2023-04-24T04:24:15;6.07;;;2.13;;
33824;SDS011;20127;48.962;8.342;2023-04-24T04:27:17;3.53;;;2.08;;
33824;SDS011;20127;48.962;8.342;2023-04-24T04:30:21;2.40;;;2.20;;
33824;SDS011;20127;48.962;8.342;2023-04-24T04:33:23;2.28;;;2.08;;
33824;SDS011;20127;48.962;8.342;2023-04-24T04:36:25;5.35;;;2.50;;
33824;SDS011;20127;48.962;8.342;2023-04-24T04:39:30;3.88;;;3.55;;
33824;SDS011;20127;48.962;8.342;2023-04-24T04:42:32;3.25;;;2.95;;
33824;SDS011;20127;48.962;8.342;2023-04-24T04:45:34;5.60;;;3.22;;
33824;SDS011;20127;48.962;8.342;2023-04-24T04:48:37;2.22;;;2.05;;
33824;SDS011;20127;48.962;8.342;2023-04-24T04:51:39;3.42;;;3.00;;
33824;SDS011;20127;48.962;8.342;2023-04-24T04:54:42;8.85;;;2.97;;
33824;SDS011;20127;48.962;8.342;2023-04-24T04:57:44;4.15;;;3.05;;
33824;SDS011;20127;48.962;8.342;2023-04-24T05:00:45;4.78;;;3.65;;
33824;SDS011;20127;48.962;8.342;2023-04-24T05:03:47;3.97;;;3.05;;
33824;SDS011;20127;48.962;8.342;2023-04-24T05:06:49;6.22;;;3.88;;
33824;SDS011;20127;48.962;8.342;2023-04-24T05:09:53;4.32;;;2.63;;
33824;SDS011;20127;48.962;8.342;2023-04-24T05:12:55;3.33;;;2.97;;
33824;SDS011;20127;48.962;8.342;2023-04-24T05:15:57;2.67;;;2.45;;
33824;SDS011;20127;48.962;8.342;2023-04-24T05:18:59;2.58;;;2.38;;
33824;SDS011;20127;48.962;8.342;2023-04-24T05:22:00;3.22;;;2.92;;
33824;SDS011;20127;48.962;8.342;2023-04-24T05:25:04;3.22;;;2.92;;
33824;SDS011;20127;48.962;8.342;2023-04-24T05:28:06;3.15;;;2.95;;
33824;SDS011;20127;48.962;8.342;2023-04-24T05:31:08;2.80;;;2.60;;
33824;SDS011;20127;48.962;8.342;2023-04-24T05:34:10;2.72;;;2.38;;
33824;SDS011;20127;48.962;8.342;2023-04-24T05:37:11;2.47;;;2.28;;
33824;SDS011;20127;48.962;8.342;2023-04-24T05:40:14;2.08;;;1.88;;
33824;SDS011;20127;48.962;8.342;2023-04-24T05:43:16;2.50;;;2.30;;
33824;SDS011;20127;48.962;8.342;2023-04-24T05:46:18;6.60;;;2.67;;
33824;SDS011;20127;48.962;8.342;2023-04-24T05:49:20;4.47;;;2.22;;
33824;SDS011;20127;48.962;8.342;2023-04-24T05:52:21;4.07;;;3.08;;
33824;SDS011;20127;48.962;8.342;2023-04-24T05:55:24;3.63;;;2.55;;
33824;SDS011;20127;48.962;8.342;2023-04-24T05:58:26;3.22;;;2.22;;
33824;SDS011;20127;48.962;8.342;2023-04-24T06:01:28;4.25;;;2.20;;
33824;SDS011;20127;48.962;8.342;2023-04-24T06:04:31;2.85;;;2.30;;
33824;SDS011;20127;48.962;8.342;2023-04-24T06:07:33;2.28;;;2.08;;
33824;SDS011;20127;48.962;8.342;2023-04-24T06:10:36;2.72;;;2.53;;
33824;SDS011;20127;48.962;8.342;2023-04-24T06:13:38;4.50;;;2.20;;
33824;SDS011;20127;48.962;8.342;2023-04-24T06:16:40;2.63;;;2.42;;
33824;SDS011;20127;48.962;8.342;2023-04-24T06:19:43;3.80;;;3.03;;
33824;SDS011;20127;48.962;8.342;2023-04-24T06:22:44;5.00;;;1.92;;
33824;SDS011;20127;48.962;8.342;2023-04-24T06:25:47;3.88;;;2.15;;
33824;SDS011;20127;48.962;8.342;2023-04-24T06:28:50;2.22;;;2.03;;
33824;SDS011;20127;48.962;8.342;2023-04-24T06:31:51;3.60;;;2.85;;
33824;SDS011;20127;48.962;8.342;2023-04-24T06:34:53;3.97;;;2.28;;
33824;SDS011;20127;48.962;8.342;2023-04-24T06:37:55;3.47;;;2.60;;
33824;SDS011;20127;48.962;8.342;2023-04-24T06:40:58;2.90;;;2.70;;
33824;SDS011;20127;48.962;8.342;2023-04-24T06:44:00;3.08;;;2.60;;
33824;SDS011;20127;48.962;8.342;2023-04-24T06:47:01;4.45;;;3.05;;
33824;SDS011;20127;48.962;8.342;2023-04-24T06:50:04;2.72;;;2.53;;
33824;SDS011;20127;48.962;8.342;2023-04-24T06:53:06;4.15;;;2.55;;
33824;SDS011;20127;48.962;8.342;2023-04-24T06:56:09;4.25;;;1.92;;
33824;SDS011;20127;48.962;8.342;2023-04-24T06:59:11;5.03;;;2.15;;
33824;SDS011;20127;48.962;8.342;2023-04-24T07:02:13;3.20;;;2.05;;
33824;SDS011;20127;48.962;8.342;2023-04-24T07:05:14;2.80;;;1.70;;
33824;SDS011;20127;48.962;8.342;2023-04-24T07:08:19;1.60;;;1.50;;
33824;SDS011;20127;48.962;8.342;2023-04-24T07:11:23;3.30;;;2.63;;
33824;SDS011;20127;48.962;8.342;2023-04-24T07:14:29;3.85;;;2.08;;
33824;SDS011;20127;48.962;8.342;2023-04-24T07:17:31;4.03;;;2.53;;
33824;SDS011;20127;48.962;8.342;2023-04-24T07:20:32;1.83;;;1.67;;
33824;SDS011;20127;48.962;8.342;2023-04-24T07:23:34;2.88;;;1.90;;
33824;SDS011;20127;48.962;8.342;2023-04-24T07:26:37;2.55;;;1.48;;
33824;SDS011;20127;48.962;8.342;2023-04-24T07:29:40;3.67;;;1.42;;
33824;SDS011;20127;48.962;8.342;2023-04-24T07:32:41;1.48;;;1.35;;
33824;SDS011;20127;48.962;8.342;2023-04-24T07:35:43;5.13;;;1.70;;
33824;SDS011;20127;48.962;8.342;2023-04-24T07:38:45;2.95;;;1.45;;
33824;SDS011;20127;48.962;8.342;2023-04-24T07:41:48;1.38;;;1.27;;
33824;SDS011;20127;48.962;8.342;2023-04-24T07:44:50;1.92;;;1.40;;
33824;SDS011;20127;48.962;8.342;2023-04-24T07:47:51;2.15;;;1.10;;
33824;SDS011;20127;48.962;8.342;2023-04-24T07:50:53;1.60;;;1.20;;
33824;SDS011;20127;48.962;8.342;2023-04-24T07:53:55;2.95;;;1.50;;
33824;SDS011;20127;48.962;8.342;2023-04-24T07:56:58;6.25;;;1.80;;
33824;SDS011;20127;48.962;8.342;2023-04-24T08:00:00;1.60;;;1.50;;
33824;SDS011;20127;48.962;8.342;2023-04-24T08:03:02;5.93;;;2.10;;
33824;SDS011;20127;48.962;8.342;2023-04-24T08:06:04;3.92;;;1.70;;
33824;SDS011;20127;48.962;8.342;2023-04-24T08:09:06;2.40;;;1.92;;
33824;SDS011;20127;48.962;8.342;2023-04-24T08:12:09;2.75;;;2.55;;
33824;SDS011;20127;48.962;8.342;2023-04-24T08:15:11;1.85;;;1.40;;
33824;SDS011;20127;48.962;8.342;2023-04-24T08:18:12;2.00;;;1.80;;
33824;SDS011;20127;48.962;8.342;2023-04-24T08:21:15;3.08;;;1.85;;
33824;SDS011;20127;48.962;8.342;2023-04-24T08:24:18;2.83;;;2.17;;
33824;SDS011;20127;48.962;8.342;2023-04-24T08:27:21;4.28;;;2.50;;
33824;SDS011;20127;48.962;8.342;2023-04-24T08:30:23;5.03;;;2.95;;
33824;SDS011;20127;48.962;8.342;2023-04-24T08:33:25;3.13;;;2.63;;
33824;SDS011;20127;48.962;8.342;2023-04-24T08:36:27;3.83;;;2.30;;
33824;SDS011;20127;48.962;8.342;2023-04-24T08:39:29;3.92;;;2.60;;
33824;SDS011;20127;48.962;8.342;2023-04-24T08:42:32;4.28;;;2.63;;
33824;SDS011;20127;48.962;8.342;2023-04-24T08:45:37;2.38;;;2.15;;
33824;SDS011;20127;48.962;8.342;2023-04-24T08:48:39;5.10;;;2.67;;
33824;SDS011;20127;48.962;8.342;2023-04-24T08:51:41;2.83;;;2.50;;
33824;SDS011;20127;48.962;8.342;2023-04-24T08:54:43;3.55;;;1.58;;
33824;SDS011;20127;48.962;8.342;2023-04-24T08:57:50;2.35;;;1.75;;
33824;SDS011;20127;48.962;8.342;2023-04-24T09:00:54;3.92;;;1.45;;
33824;SDS011;20127;48.962;8.342;2023-04-24T09:03:56;3.22;;;1.95;;
33824;SDS011;20127;48.962;8.342;2023-04-24T09:06:58;4.72;;;1.77;;
33824;SDS011;20127;48.962;8.342;2023-04-24T09:10:01;2.13;;;1.83;;
33824;SDS011;20127;48.962;8.342;2023-04-24T09:13:05;2.15;;;1.88;;
33824;SDS011;20127;48.962;8.342;2023-04-24T09:16:09;1.38;;;1.27;;
33824;SDS011;20127;48.962;8.342;2023-04-24T09:19:10;4.68;;;2.05;;
33824;SDS011;20127;48.962;8.342;2023-04-24T09:22:12;3.53;;;1.92;;
33824;SDS011;20127;48.962;8.342;2023-04-24T09:25:14;2.22;;;1.85;;
33824;SDS011;20127;48.962;8.342;2023-04-24T09:28:17;2.58;;;2.35;;
33824;SDS011;20127;48.962;8.342;2023-04-24T09:31:19;4.28;;;2.15;;
33824;SDS011;20127;48.962;8.342;2023-04-24T09:34:23;2.22;;;1.92;;
33824;SDS011;20127;48.962;8.342;2023-04-24T09:37:28;2.92;;;2.42;;
33824;SDS011;20127;48.962;8.342;2023-04-24T09:40:31;6.75;;;2.50;;
33824;SDS011;20127;48.962;8.342;2023-04-24T09:43:37;5.55;;;2.15;;
33824;SDS011;20127;48.962;8.342;2023-04-24T09:46:38;2.95;;;2.67;;
33824;SDS011;20127;48.962;8.342;2023-04-24T09:49:41;5.70;;;2.65;;
33824;SDS011;20127;48.962;8.342;2023-04-24T09:52:43;2.30;;;2.10;;
33824;SDS011;20127;48.962;8.342;2023-04-24T09:55:46;3.15;;;2.10;;
33824;SDS011;20127;48.962;8.342;2023-04-24T09:58:50;5.47;;;1.90;;
33824;SDS011;20127;48.962;8.342;2023-04-24T10:01:52;1.85;;;1.65;;
33824;SDS011;20127;48.962;8.342;2023-04-24T10:04:54;4.90;;;2.00;;
33824;SDS011;20127;48.962;8.342;2023-04-24T10:07:57;1.48;;;1.38;;
33824;SDS011;20127;48.962;8.342;2023-04-24T10:11:01;3.10;;;1.58;;
33824;SDS011;20127;48.962;8.342;2023-04-24T10:14:04;2.25;;;1.80;;
33824;SDS011;20127;48.962;8.342;2023-04-24T10:17:06;3.20;;;2.05;;
33824;SDS011;20127;48.962;8.342;2023-04-24T10:20:09;2.47;;;2.05;;
33824;SDS011;20127;48.962;8.342;2023-04-24T10:23:11;2.28;;;2.08;;
33824;SDS011;20127;48.962;8.342;2023-04-24T10:26:13;4.50;;;1.90;;
33824;SDS011;20127;48.962;8.342;2023-04-24T10:29:19;3.88;;;2.10;;
33824;SDS011;20127;48.962;8.342;2023-04-24T10:32:22;2.53;;;2.03;;
33824;SDS011;20127;48.962;8.342;2023-04-24T10:35:23;5.20;;;2.08;;
33824;SDS011;20127;48.962;8.342;2023-04-24T10:38:26;2.78;;;2.35;;
33824;SDS011;20127;48.962;8.342;2023-04-24T10:41:30;4.40;;;3.08;;
33824;SDS011;20127;48.962;8.342;2023-04-24T10:44:36;3.80;;;2.67;;
33824;SDS011;20127;48.962;8.342;2023-04-24T10:47:41;4.10;;;2.88;;
33824;SDS011;20127;48.962;8.342;2023-04-24T10:50:44;3.63;;;2.60;;
33824;SDS011;20127;48.962;8.342;2023-04-24T10:53:52;4.68;;;2.00;;
33824;SDS011;20127;48.962;8.342;2023-04-24T10:57:25;2.42;;;2.20;;
33824;SDS011;20127;48.962;8.342;2023-04-24T11:00:32;4.35;;;2.35;;
33824;SDS011;20127;48.962;8.342;2023-04-24T11:03:34;2.70;;;2.45;;
33824;SDS011;20127;48.962;8.342;2023-04-24T11:06:36;3.83;;;2.70;;
33824;SDS011;20127;48.962;8.342;2023-04-24T11:09:38;3.67;;;2.80;;
33824;SDS011;20127;48.962;8.342;2023-04-24T11:12:43;4.90;;;2.40;;
33824;SDS011;20127;48.962;8.342;2023-04-24T11:15:46;5.97;;;4.13;;
33824;SDS011;20127;48.962;8.342;2023-04-24T11:19:18;5.35;;;3.65;;
33824;SDS011;20127;48.962;8.342;2023-04-24T11:22:23;9.43;;;8.63;;
33824;SDS011;20127;48.962;8.342;2023-04-24T11:25:25;12.80;;;11.50;;
33824;SDS011;20127;48.962;8.342;2023-04-24T11:28:32;9.23;;;7.40;;
33824;SDS011;20127;48.962;8.342;2023-04-24T11:31:35;21.40;;;19.33;;
33824;SDS011;20127;48.962;8.342;2023-04-24T11:37:46;9.02;;;8.15;;
33824;SDS011;20127;48.962;8.342;2023-04-24T11:40:49;11.95;;;10.25;;
33824;SDS011;20127;48.962;8.342;2023-04-24T11:44:09;8.43;;;7.55;;
33824;SDS011;20127;48.962;8.342;2023-04-24T11:47:30;7.97;;;6.60;;
33824;SDS011;20127;48.962;8.342;2023-04-24T11:50:33;6.55;;;5.88;;
33824;SDS011;20127;48.962;8.342;2023-04-24T11:53:35;7.57;;;5.38;;
33824;SDS011;20127;48.962;8.342;2023-04-24T11:56:38;7.43;;;5.18;;
33824;SDS011;20127;48.962;8.342;2023-04-24T11:59:39;4.18;;;3.80;;
33824;SDS011;20127;48.962;8.342;2023-04-24T12:02:42;4.40;;;3.15;;
33824;SDS011;20127;48.962;8.342;2023-04-24T12:05:44;3.70;;;3.40;;
33824;SDS011;20127;48.962;8.342;2023-04-24T12:08:46;7.38;;;4.35;;
33824;SDS011;20127;48.962;8.342;2023-04-24T12:11:52;4.55;;;3.38;;
33824;SDS011;20127;48.962;8.342;2023-04-24T12:14:54;4.15;;;3.55;;
33824;SDS011;20127;48.962;8.342;2023-04-24T12:17:59;7.20;;;3.40;;
33824;SDS011;20127;48.962;8.342;2023-04-24T12:21:17;4.50;;;4.00;;
33824;SDS011;20127;48.962;8.342;2023-04-24T12:24:19;4.35;;;3.95;;
33824;SDS011;20127;48.962;8.342;2023-04-24T12:27:21;4.68;;;4.28;;
33824;SDS011;20127;48.962;8.342;2023-04-24T12:30:26;7.65;;;7.13;;
33824;SDS011;20127;48.962;8.342;2023-04-24T12:33:33;3.95;;;3.65;;
33824;SDS011;20127;48.962;8.342;2023-04-24T12:36:35;5.35;;;3.50;;
33824;SDS011;20127;48.962;8.342;2023-04-24T12:39:37;3.95;;;3.53;;
33824;SDS011;20127;48.962;8.342;2023-04-24T12:42:41;5.65;;;3.70;;
33824;SDS011;20127;48.962;8.342;2023-04-24T12:45:44;3.95;;;3.60;;
33824;SDS011;20127;48.962;8.342;2023-04-24T12:48:47;3.35;;;2.95;;
33824;SDS011;20127;48.962;8.342;2023-04-24T12:51:49;4.72;;;3.35;;
33824;SDS011;20127;48.962;8.342;2023-04-24T12:54:52;3.97;;;3.38;;
33824;SDS011;20127;48.962;8.342;2023-04-24T12:57:55;2.83;;;2.63;;
33824;SDS011;20127;48.962;8.342;2023-04-24T13:00:56;6.05;;;2.85;;
33824;SDS011;20127;48.962;8.342;2023-04-24T13:03:59;6.13;;;3.72;;
33824;SDS011;20127;48.962;8.342;2023-04-24T13:07:01;2.88;;;2.63;;
33824;SDS011;20127;48.962;8.342;2023-04-24T13:10:03;4.38;;;2.97;;
33824;SDS011;20127;48.962;8.342;2023-04-24T13:13:05;4.97;;;2.67;;
33824;SDS011;20127;48.962;8.342;2023-04-24T13:16:07;2.88;;;2.55;;
33824;SDS011;20127;48.962;8.342;2023-04-24T13:19:10;2.78;;;2.58;;
33824;SDS011;20127;48.962;8.342;2023-04-24T13:22:12;3.05;;;2.75;;
33824;SDS011;20127;48.962;8.342;2023-04-24T13:25:14;7.05;;;3.58;;
33824;SDS011;20127;48.962;8.342;2023-04-24T13:28:16;5.57;;;3.40;;
33824;SDS011;20127;48.962;8.342;2023-04-24T13:31:18;6.85;;;3.03;;
33824;SDS011;20127;48.962;8.342;2023-04-24T13:34:21;4.40;;;3.08;;
33824;SDS011;20127;48.962;8.342;2023-04-24T13:37:23;4.50;;;3.65;;
33824;SDS011;20127;48.962;8.342;2023-04-24T13:40:25;4.63;;;3.45;;
33824;SDS011;20127;48.962;8.342;2023-04-24T13:43:27;4.57;;;3.05;;
33824;SDS011;20127;48.962;8.342;2023-04-24T13:46:29;4.25;;;3.92;;
33824;SDS011;20127;48.962;8.342;2023-04-24T13:49:33;5.05;;;2.90;;
33824;SDS011;20127;48.962;8.342;2023-04-24T13:52:35;2.80;;;2.40;;
33824;SDS011;20127;48.962;8.342;2023-04-24T13:55:36;3.85;;;2.67;;
33824;SDS011;20127;48.962;8.342;2023-04-24T13:58:39;5.20;;;2.10;;
33824;SDS011;20127;48.962;8.342;2023-04-24T14:01:40;6.20;;;2.30;;
33824;SDS011;20127;48.962;8.342;2023-04-24T14:04:43;2.50;;;2.30;;
33824;SDS011;20127;48.962;8.342;2023-04-24T14:07:45;2.85;;;2.45;;
33824;SDS011;20127;48.962;8.342;2023-04-24T14:10:47;4.78;;;2.90;;
33824;SDS011;20127;48.962;8.342;2023-04-24T14:13:49;3.28;;;2.50;;
33824;SDS011;20127;48.962;8.342;2023-04-24T14:16:51;5.57;;;3.00;;
33824;SDS011;20127;48.962;8.342;2023-04-24T14:19:54;3.40;;;3.10;;
33824;SDS011;20127;48.962;8.342;2023-04-24T14:22:56;6.43;;;2.72;;
33824;SDS011;20127;48.962;8.342;2023-04-24T14:25:59;2.35;;;2.15;;
33824;SDS011;20127;48.962;8.342;2023-04-24T14:29:01;3.00;;;2.00;;
33824;SDS011;20127;48.962;8.342;2023-04-24T14:32:02;3.08;;;2.42;;
33824;SDS011;20127;48.962;8.342;2023-04-24T14:35:06;2.70;;;1.90;;
33824;SDS011;20127;48.962;8.342;2023-04-24T14:38:08;2.40;;;1.83;;
33824;SDS011;20127;48.962;8.342;2023-04-24T14:41:10;3.17;;;1.80;;
33824;SDS011;20127;48.962;8.342;2023-04-24T14:44:12;2.08;;;1.48;;
33824;SDS011;20127;48.962;8.342;2023-04-24T14:47:14;3.72;;;1.80;;
33824;SDS011;20127;48.962;8.342;2023-04-24T14:50:18;2.03;;;1.65;;
33824;SDS011;20127;48.962;8.342;2023-04-24T14:53:21;3.00;;;2.47;;
33824;SDS011;20127;48.962;8.342;2023-04-24T14:56:22;2.22;;;1.80;;
33824;SDS011;20127;48.962;8.342;2023-04-24T14:59:24;3.55;;;1.90;;
33824;SDS011;20127;48.962;8.342;2023-04-24T15:02:26;2.08;;;1.63;;
33824;SDS011;20127;48.962;8.342;2023-04-24T15:05:29;3.03;;;2.03;;
33824;SDS011;20127;48.962;8.342;2023-04-24T15:08:31;1.75;;;1.48;;
33824;SDS011;20127;48.962;8.342;2023-04-24T15:11:32;1.50;;;1.40;;
33824;SDS011;20127;48.962;8.342;2023-04-24T15:14:34;2.13;;;1.92;;
33824;SDS011;20127;48.962;8.342;2023-04-24T15:17:36;2.08;;;1.95;;
33824;SDS011;20127;48.962;8.342;2023-04-24T15:20:39;1.90;;;1.80;;
33824;SDS011;20127;48.962;8.342;2023-04-24T15:23:41;2.47;;;1.98;;
33824;SDS011;20127;48.962;8.342;2023-04-24T15:26:43;5.82;;;2.47;;
33824;SDS011;20127;48.962;8.342;2023-04-24T15:29:44;3.58;;;1.92;;
33824;SDS011;20127;48.962;8.342;2023-04-24T15:32:46;3.95;;;1.55;;
33824;SDS011;20127;48.962;8.342;2023-04-24T15:35:49;2.38;;;2.00;;
33824;SDS011;20127;48.962;8.342;2023-04-24T15:38:51;5.40;;;2.83;;
33824;SDS011;20127;48.962;8.342;2023-04-24T15:41:53;3.75;;;1.98;;
33824;SDS011;20127;48.962;8.342;2023-04-24T15:44:55;4.68;;;1.73;;
33824;SDS011;20127;48.962;8.342;2023-04-24T15:47:56;2.35;;;2.15;;
33824;SDS011;20127;48.962;8.342;2023-04-24T15:50:59;2.55;;;2.33;;
33824;SDS011;20127;48.962;8.342;2023-04-24T15:54:01;2.67;;;2.28;;
33824;SDS011;20127;48.962;8.342;2023-04-24T15:57:03;4.85;;;2.28;;
33824;SDS011;20127;48.962;8.342;2023-04-24T16:00:05;1.70;;;1.60;;
33824;SDS011;20127;48.962;8.342;2023-04-24T16:03:08;2.22;;;2.03;;
33824;SDS011;20127;48.962;8.342;2023-04-24T16:06:12;3.78;;;2.45;;
33824;SDS011;20127;48.962;8.342;2023-04-24T16:09:13;2.70;;;2.50;;
33824;SDS011;20127;48.962;8.342;2023-04-24T16:12:15;2.22;;;2.00;;
33824;SDS011;20127;48.962;8.342;2023-04-24T16:15:17;2.83;;;2.63;;
33824;SDS011;20127;48.962;8.342;2023-04-24T16:18:19;2.20;;;1.65;;
33824;SDS011;20127;48.962;8.342;2023-04-24T16:21:25;3.67;;;1.92;;
33824;SDS011;20127;48.962;8.342;2023-04-24T16:24:26;4.28;;;1.73;;
33824;SDS011;20127;48.962;8.342;2023-04-24T16:27:28;2.13;;;1.95;;
33824;SDS011;20127;48.962;8.342;2023-04-24T16:30:30;2.03;;;1.55;;
33824;SDS011;20127;48.962;8.342;2023-04-24T16:33:32;2.05;;;1.55;;
33824;SDS011;20127;48.962;8.342;2023-04-24T16:36:35;1.92;;;1.40;;
33824;SDS011;20127;48.962;8.342;2023-04-24T16:39:37;6.90;;;5.15;;
33824;SDS011;20127;48.962;8.342;2023-04-24T16:42:43;7.88;;;6.30;;
33824;SDS011;20127;48.962;8.342;2023-04-24T16:45:45;3.60;;;2.63;;
33824;SDS011;20127;48.962;8.342;2023-04-24T16:48:47;2.05;;;1.85;;
33824;SDS011;20127;48.962;8.342;2023-04-24T16:51:50;2.92;;;2.17;;
33824;SDS011;20127;48.962;8.342;2023-04-24T16:54:51;4.85;;;2.45;;
33824;SDS011;20127;48.962;8.342;2023-04-24T16:57:53;8.85;;;5.60;;
33824;SDS011;20127;48.962;8.342;2023-04-24T17:00:55;35.97;;;23.25;;
33824;SDS011;20127;48.962;8.342;2023-04-24T17:03:57;7.32;;;6.70;;
33824;SDS011;20127;48.962;8.342;2023-04-24T17:07:00;6.88;;;3.42;;
33824;SDS011;20127;48.962;8.342;2023-04-24T17:10:02;4.13;;;3.55;;
33824;SDS011;20127;48.962;8.342;2023-04-24T17:13:04;8.35;;;3.00;;
33824;SDS011;20127;48.962;8.342;2023-04-24T17:16:06;4.65;;;4.00;;
33824;SDS011;20127;48.962;8.342;2023-04-24T17:19:07;6.78;;;4.60;;
33824;SDS011;20127;48.962;8.342;2023-04-24T17:22:11;3.90;;;3.47;;
33824;SDS011;20127;48.962;8.342;2023-04-24T17:25:13;3.70;;;3.00;;
33824;SDS011;20127;48.962;8.342;2023-04-24T17:28:19;3.70;;;3.33;;
33824;SDS011;20127;48.962;8.342;2023-04-24T17:31:25;3.20;;;2.53;;
33824;SDS011;20127;48.962;8.342;2023-04-24T17:34:26;6.78;;;2.70;;
33824;SDS011;20127;48.962;8.342;2023-04-24T17:37:29;4.80;;;3.00;;
33824;SDS011;20127;48.962;8.342;2023-04-24T17:40:31;8.25;;;3.50;;
33824;SDS011;20127;48.962;8.342;2023-04-24T17:43:33;5.07;;;3.35;;
33824;SDS011;20127;48.962;8.342;2023-04-24T17:46:35;4.75;;;3.60;;
33824;SDS011;20127;48.962;8.342;2023-04-24T17:49:36;6.50;;;4.72;;
33824;SDS011;20127;48.962;8.342;2023-04-24T17:52:39;3.40;;;2.80;;
33824;SDS011;20127;48.962;8.342;2023-04-24T17:55:41;3.70;;;3.25;;
33824;SDS011;20127;48.962;8.342;2023-04-24T17:58:43;4.65;;;2.80;;
33824;SDS011;20127;48.962;8.342;2023-04-24T18:01:45;4.25;;;3.50;;
33824;SDS011;20127;48.962;8.342;2023-04-24T18:04:46;11.43;;;3.33;;
33824;SDS011;20127;48.962;8.342;2023-04-24T18:07:50;4.05;;;3.08;;
33824;SDS011;20127;48.962;8.342;2023-04-24T18:10:51;3.90;;;3.00;;
33824;SDS011;20127;48.962;8.342;2023-04-24T18:13:53;4.43;;;3.22;;
33824;SDS011;20127;48.962;8.342;2023-04-24T18:16:55;10.15;;;5.10;;
33824;SDS011;20127;48.962;8.342;2023-04-24T18:19:57;3.60;;;3.30;;
33824;SDS011;20127;48.962;8.342;2023-04-24T18:23:00;5.53;;;3.60;;